sensor_id;sensor_type;location;lat;lon;timestamp;pressure;altitude;pressure_sealevel;temperature;humidity
4133;BME280;2080;51.038;7.008;2023-06-14T00:01:13;47425.19;;;-142.53;37.04
4133;BME280;2080;51.038;7.008;2023-06-14T00:03:42;47386.69;;;-142.53;36.96
4133;BME280;2080;51.038;7.008;2023-06-14T00:06:07;47490.69;;;-142.53;37.42
4133;BME280;2080;51.038;7.008;2023-06-14T00:08:32;47463.72;;;-142.53;37.23
4133;BME280;2080;51.038;7.008;2023-06-14T00:11:03;47456.00;;;-142.53;36.91
4133;BME280;2080;51.038;7.008;2023-06-14T00:13:28;47454.09;;;-142.53;36.93
4133;BME280;2080;51.038;7.008;2023-06-14T00:15:54;47475.28;;;-142.53;37.33
4133;BME280;2080;51.038;7.008;2023-06-14T00:18:20;47469.50;;;-142.53;36.98
4133;BME280;2080;51.038;7.008;2023-06-14T00:20:51;47436.75;;;-142.53;37.31
4133;BME280;2080;51.038;7.008;2023-06-14T00:23:17;47486.84;;;-142.53;37.58
4133;BME280;2080;51.038;7.008;2023-06-14T00:25:45;47450.25;;;-142.53;37.42
4133;BME280;2080;51.038;7.008;2023-06-14T00:28:10;47463.72;;;-142.53;37.60
4133;BME280;2080;51.038;7.008;2023-06-14T00:30:40;47511.88;;;-142.53;37.61
4133;BME280;2080;51.038;7.008;2023-06-14T00:33:06;47452.16;;;-142.53;37.80
4133;BME280;2080;51.038;7.008;2023-06-14T00:35:31;47456.00;;;-142.53;37.69
4133;BME280;2080;51.038;7.008;2023-06-14T00:37:57;47482.97;;;-142.53;38.31
4133;BME280;2080;51.038;7.008;2023-06-14T00:40:24;47484.91;;;-142.53;38.27
4133;BME280;2080;51.038;7.008;2023-06-14T00:42:50;47477.19;;;-142.53;38.43
4133;BME280;2080;51.038;7.008;2023-06-14T00:45:17;47494.53;;;-142.53;38.40
4133;BME280;2080;51.038;7.008;2023-06-14T00:47:44;47477.19;;;-142.53;38.57
4133;BME280;2080;51.038;7.008;2023-06-14T00:50:13;47456.00;;;-142.53;38.67
4133;BME280;2080;51.038;7.008;2023-06-14T00:52:43;47494.53;;;-142.53;38.46
4133;BME280;2080;51.038;7.008;2023-06-14T00:55:10;47479.13;;;-142.53;38.80
4133;BME280;2080;51.038;7.008;2023-06-14T00:57:36;47538.84;;;-142.53;39.21
4133;BME280;2080;51.038;7.008;2023-06-14T01:00:05;47509.94;;;-142.53;39.11
4133;BME280;2080;51.038;7.008;2023-06-14T01:02:36;47502.25;;;-142.53;38.98
4133;BME280;2080;51.038;7.008;2023-06-14T01:05:03;47413.66;;;-142.53;39.43
4133;BME280;2080;51.038;7.008;2023-06-14T01:13:15;47486.84;;;-142.53;39.43
4133;BME280;2080;51.038;7.008;2023-06-14T01:15:47;47490.69;;;-142.53;39.22
4133;BME280;2080;51.038;7.008;2023-06-14T01:18:15;47508.00;;;-142.53;39.47
4133;BME280;2080;51.038;7.008;2023-06-14T01:20:47;47475.28;;;-142.53;39.81
4133;BME280;2080;51.038;7.008;2023-06-14T01:23:19;47475.28;;;-142.53;39.67
4133;BME280;2080;51.038;7.008;2023-06-14T01:25:46;47473.34;;;-142.53;40.05
4133;BME280;2080;51.038;7.008;2023-06-14T01:28:13;47479.13;;;-142.53;39.54
4133;BME280;2080;51.038;7.008;2023-06-14T01:30:41;47452.16;;;-142.53;39.56
4133;BME280;2080;51.038;7.008;2023-06-14T01:33:14;47509.94;;;-142.53;39.80
4133;BME280;2080;51.038;7.008;2023-06-14T01:35:43;47421.34;;;-142.53;39.50
4133;BME280;2080;51.038;7.008;2023-06-14T01:38:08;47494.53;;;-142.53;39.59
4133;BME280;2080;51.038;7.008;2023-06-14T01:40:36;47509.94;;;-142.53;39.90
4133;BME280;2080;51.038;7.008;2023-06-14T01:43:04;47506.09;;;-142.53;40.08
4133;BME280;2080;51.038;7.008;2023-06-14T01:45:31;47498.38;;;-142.53;39.95
4133;BME280;2080;51.038;7.008;2023-06-14T01:47:57;47486.84;;;-142.53;39.88
4133;BME280;2080;51.038;7.008;2023-06-14T01:50:22;47498.38;;;-142.53;39.66
4133;BME280;2080;51.038;7.008;2023-06-14T01:52:47;47513.78;;;-142.53;39.60
4133;BME280;2080;51.038;7.008;2023-06-14T01:55:13;47509.94;;;-142.53;40.15
4133;BME280;2080;51.038;7.008;2023-06-14T01:57:38;47456.00;;;-142.53;40.07
4133;BME280;2080;51.038;7.008;2023-06-14T02:00:07;47506.09;;;-142.53;40.43
4133;BME280;2080;51.038;7.008;2023-06-14T02:02:35;47457.94;;;-142.53;40.77
4133;BME280;2080;51.038;7.008;2023-06-14T02:05:01;47459.88;;;-142.53;40.78
4133;BME280;2080;51.038;7.008;2023-06-14T02:07:26;47475.28;;;-142.53;41.29
4133;BME280;2080;51.038;7.008;2023-06-14T02:09:54;47521.50;;;-142.53;41.08
4133;BME280;2080;51.038;7.008;2023-06-14T02:12:20;47525.34;;;-142.53;41.27
4133;BME280;2080;51.038;7.008;2023-06-14T02:14:45;47527.28;;;-142.53;41.25
4133;BME280;2080;51.038;7.008;2023-06-14T02:17:10;47675.56;;;-142.53;41.76
4133;BME280;2080;51.038;7.008;2023-06-14T02:19:36;47479.13;;;-142.53;42.06
4133;BME280;2080;51.038;7.008;2023-06-14T02:22:02;47494.53;;;-142.53;42.14
4133;BME280;2080;51.038;7.008;2023-06-14T02:24:27;47517.66;;;-142.53;42.22
4133;BME280;2080;51.038;7.008;2023-06-14T02:26:53;47490.69;;;-142.53;42.53
4133;BME280;2080;51.038;7.008;2023-06-14T02:29:18;47482.97;;;-142.53;42.38
4133;BME280;2080;51.038;7.008;2023-06-14T02:31:46;47513.78;;;-142.53;42.71
4133;BME280;2080;51.038;7.008;2023-06-14T02:34:16;47506.09;;;-142.53;42.40
4133;BME280;2080;51.038;7.008;2023-06-14T02:36:47;47502.25;;;-142.53;42.81
4133;BME280;2080;51.038;7.008;2023-06-14T02:39:15;47475.28;;;-142.53;42.36
4133;BME280;2080;51.038;7.008;2023-06-14T02:41:41;47502.25;;;-142.53;42.47
4133;BME280;2080;51.038;7.008;2023-06-14T02:44:07;47475.28;;;-142.53;42.58
4133;BME280;2080;51.038;7.008;2023-06-14T02:46:34;47457.94;;;-142.53;42.77
4133;BME280;2080;51.038;7.008;2023-06-14T02:49:00;47482.97;;;-142.53;42.84
4133;BME280;2080;51.038;7.008;2023-06-14T02:51:28;47509.94;;;-142.53;42.79
4133;BME280;2080;51.038;7.008;2023-06-14T02:53:53;47498.38;;;-142.53;43.10
4133;BME280;2080;51.038;7.008;2023-06-14T02:56:19;47502.25;;;-142.53;43.40
4133;BME280;2080;51.038;7.008;2023-06-14T02:58:44;47481.06;;;-142.53;43.39
4133;BME280;2080;51.038;7.008;2023-06-14T03:01:10;47492.59;;;-142.53;43.34
4133;BME280;2080;51.038;7.008;2023-06-14T03:03:38;47563.88;;;-142.53;43.13
4133;BME280;2080;51.038;7.008;2023-06-14T03:06:03;47523.41;;;-142.53;43.53
4133;BME280;2080;51.038;7.008;2023-06-14T03:08:30;47515.72;;;-142.53;43.86
4133;BME280;2080;51.038;7.008;2023-06-14T03:10:57;47459.88;;;-142.53;44.39
4133;BME280;2080;51.038;7.008;2023-06-14T03:13:22;47475.28;;;-142.53;44.63
4133;BME280;2080;51.038;7.008;2023-06-14T03:15:51;47506.09;;;-142.53;44.78
4133;BME280;2080;51.038;7.008;2023-06-14T03:18:17;47517.66;;;-142.53;44.54
4133;BME280;2080;51.038;7.008;2023-06-14T03:20:43;47413.66;;;-142.53;43.82
4133;BME280;2080;51.038;7.008;2023-06-14T03:23:13;47504.16;;;-142.53;43.56
4133;BME280;2080;51.038;7.008;2023-06-14T03:25:41;47502.25;;;-142.53;43.52
4133;BME280;2080;51.038;7.008;2023-06-14T03:28:07;47504.16;;;-142.53;43.57
4133;BME280;2080;51.038;7.008;2023-06-14T03:30:33;47521.50;;;-142.53;43.92
4133;BME280;2080;51.038;7.008;2023-06-14T03:33:01;47533.06;;;-142.53;43.94
4133;BME280;2080;51.038;7.008;2023-06-14T03:35:28;47471.41;;;-142.53;43.86
4133;BME280;2080;51.038;7.008;2023-06-14T03:37:55;47529.19;;;-142.53;44.40
4133;BME280;2080;51.038;7.008;2023-06-14T03:40:26;47509.94;;;-142.53;44.59
4133;BME280;2080;51.038;7.008;2023-06-14T03:42:55;47513.78;;;-142.53;44.28
4133;BME280;2080;51.038;7.008;2023-06-14T03:45:23;47540.75;;;-142.53;44.24
4133;BME280;2080;51.038;7.008;2023-06-14T03:47:51;47509.94;;;-142.53;44.57
4133;BME280;2080;51.038;7.008;2023-06-14T03:50:17;47475.28;;;-142.53;44.90
4133;BME280;2080;51.038;7.008;2023-06-14T03:52:44;47467.56;;;-142.53;44.74
4133;BME280;2080;51.038;7.008;2023-06-14T03:55:09;47509.94;;;-142.53;44.79
4133;BME280;2080;51.038;7.008;2023-06-14T03:57:35;47477.19;;;-142.53;44.84
4133;BME280;2080;51.038;7.008;2023-06-14T04:00:01;47486.84;;;-142.53;44.59
4133;BME280;2080;51.038;7.008;2023-06-14T04:02:29;47473.34;;;-142.53;44.68
4133;BME280;2080;51.038;7.008;2023-06-14T04:04:55;47498.38;;;-142.53;44.54
4133;BME280;2080;51.038;7.008;2023-06-14T04:07:21;47506.09;;;-142.53;44.60
4133;BME280;2080;51.038;7.008;2023-06-14T04:09:46;47484.91;;;-142.53;44.78
4133;BME280;2080;51.038;7.008;2023-06-14T04:12:16;47467.56;;;-142.53;43.59
4133;BME280;2080;51.038;7.008;2023-06-14T04:14:42;47461.78;;;-142.53;42.74
4133;BME280;2080;51.038;7.008;2023-06-14T04:17:08;47477.19;;;-142.53;41.39
4133;BME280;2080;51.038;7.008;2023-06-14T04:19:33;47442.53;;;-142.53;40.47
4133;BME280;2080;51.038;7.008;2023-06-14T04:21:59;47457.94;;;-142.53;39.30
4133;BME280;2080;51.038;7.008;2023-06-14T04:24:27;47386.69;;;-142.53;38.55
4133;BME280;2080;51.038;7.008;2023-06-14T04:26:58;47413.66;;;-142.53;37.91
4133;BME280;2080;51.038;7.008;2023-06-14T04:29:26;47417.50;;;-142.53;37.26
4133;BME280;2080;51.038;7.008;2023-06-14T04:31:55;47352.03;;;-142.53;36.76
4133;BME280;2080;51.038;7.008;2023-06-14T04:34:26;47394.38;;;-142.53;36.23
4133;BME280;2080;51.038;7.008;2023-06-14T04:36:57;47378.97;;;-142.53;36.01
4133;BME280;2080;51.038;7.008;2023-06-14T04:39:27;47377.06;;;-142.53;35.08
4133;BME280;2080;51.038;7.008;2023-06-14T04:41:55;47402.09;;;-142.53;34.57
4133;BME280;2080;51.038;7.008;2023-06-14T04:44:23;47359.72;;;-142.53;34.44
4133;BME280;2080;51.038;7.008;2023-06-14T04:46:58;47344.31;;;-142.53;34.19
4133;BME280;2080;51.038;7.008;2023-06-14T04:49:24;47378.97;;;-142.53;34.02
4133;BME280;2080;51.038;7.008;2023-06-14T04:51:53;47390.53;;;-142.53;34.15
4133;BME280;2080;51.038;7.008;2023-06-14T04:54:29;47317.34;;;-142.53;33.76
4133;BME280;2080;51.038;7.008;2023-06-14T04:56:59;47390.53;;;-142.53;33.44
4133;BME280;2080;51.038;7.008;2023-06-14T04:59:25;47386.69;;;-142.53;33.52
4133;BME280;2080;51.038;7.008;2023-06-14T05:02:01;47186.41;;;-142.53;33.36
4133;BME280;2080;51.038;7.008;2023-06-14T05:04:30;47378.97;;;-142.53;33.38
4133;BME280;2080;51.038;7.008;2023-06-14T05:06:58;47301.94;;;-142.53;33.07
4133;BME280;2080;51.038;7.008;2023-06-14T05:09:27;47388.63;;;-142.53;32.93
4133;BME280;2080;51.038;7.008;2023-06-14T05:11:58;47344.31;;;-142.53;32.96
4133;BME280;2080;51.038;7.008;2023-06-14T05:14:26;47363.56;;;-142.53;33.06
4133;BME280;2080;51.038;7.008;2023-06-14T05:16:52;47394.38;;;-142.53;32.46
4133;BME280;2080;51.038;7.008;2023-06-14T05:19:27;47382.84;;;-142.53;32.38
4133;BME280;2080;51.038;7.008;2023-06-14T05:21:54;47402.09;;;-142.53;32.68
4133;BME280;2080;51.038;7.008;2023-06-14T05:24:19;47386.69;;;-142.53;32.59
4133;BME280;2080;51.038;7.008;2023-06-14T05:26:45;47332.75;;;-142.53;32.70
4133;BME280;2080;51.038;7.008;2023-06-14T05:29:13;47363.56;;;-142.53;32.65
4133;BME280;2080;51.038;7.008;2023-06-14T05:31:41;47394.38;;;-142.53;32.64
4133;BME280;2080;51.038;7.008;2023-06-14T05:34:06;47371.28;;;-142.53;32.67
4133;BME280;2080;51.038;7.008;2023-06-14T05:36:34;47452.16;;;-142.53;33.00
4133;BME280;2080;51.038;7.008;2023-06-14T05:39:04;47432.91;;;-142.53;33.01
4133;BME280;2080;51.038;7.008;2023-06-14T05:41:35;47425.19;;;-142.53;33.32
4133;BME280;2080;51.038;7.008;2023-06-14T05:44:05;47452.16;;;-142.53;33.60
4133;BME280;2080;51.038;7.008;2023-06-14T05:46:31;47440.59;;;-142.53;34.31
4133;BME280;2080;51.038;7.008;2023-06-14T05:48:56;47436.75;;;-142.53;34.40
4133;BME280;2080;51.038;7.008;2023-06-14T05:51:22;47444.47;;;-142.53;34.47
4133;BME280;2080;51.038;7.008;2023-06-14T05:53:50;47494.53;;;-142.53;34.60
4133;BME280;2080;51.038;7.008;2023-06-14T05:56:19;47448.31;;;-142.53;34.53
4133;BME280;2080;51.038;7.008;2023-06-14T05:58:45;47442.53;;;-142.53;34.48
4133;BME280;2080;51.038;7.008;2023-06-14T06:01:14;47454.09;;;-142.53;34.71
4133;BME280;2080;51.038;7.008;2023-06-14T06:03:40;47419.44;;;-142.53;34.34
4133;BME280;2080;51.038;7.008;2023-06-14T06:06:09;47417.50;;;-142.53;34.88
4133;BME280;2080;51.038;7.008;2023-06-14T06:08:34;47444.47;;;-142.53;35.01
4133;BME280;2080;51.038;7.008;2023-06-14T06:11:00;47413.66;;;-142.53;34.93
4133;BME280;2080;51.038;7.008;2023-06-14T06:13:28;47456.00;;;-142.53;34.42
4133;BME280;2080;51.038;7.008;2023-06-14T06:15:56;47444.47;;;-142.53;34.41
4133;BME280;2080;51.038;7.008;2023-06-14T06:18:24;47467.56;;;-142.53;34.64
4133;BME280;2080;51.038;7.008;2023-06-14T06:20:49;47425.19;;;-142.53;34.85
4133;BME280;2080;51.038;7.008;2023-06-14T06:23:17;47444.47;;;-142.53;34.54
4133;BME280;2080;51.038;7.008;2023-06-14T06:25:43;47448.31;;;-142.53;34.73
4133;BME280;2080;51.038;7.008;2023-06-14T06:28:08;47436.75;;;-142.53;34.71
4133;BME280;2080;51.038;7.008;2023-06-14T06:30:33;47425.19;;;-142.53;34.54
4133;BME280;2080;51.038;7.008;2023-06-14T06:32:59;47409.78;;;-142.53;34.64
4133;BME280;2080;51.038;7.008;2023-06-14T06:35:30;47425.19;;;-142.53;34.67
4133;BME280;2080;51.038;7.008;2023-06-14T06:38:00;47440.59;;;-142.53;34.56
4133;BME280;2080;51.038;7.008;2023-06-14T06:40:29;47467.56;;;-142.53;34.39
4133;BME280;2080;51.038;7.008;2023-06-14T06:42:54;47450.25;;;-142.53;34.53
4133;BME280;2080;51.038;7.008;2023-06-14T06:45:20;47482.97;;;-142.53;34.51
4133;BME280;2080;51.038;7.008;2023-06-14T06:47:45;47409.78;;;-142.53;34.42
4133;BME280;2080;51.038;7.008;2023-06-14T06:50:11;47440.59;;;-142.53;34.43
4133;BME280;2080;51.038;7.008;2023-06-14T06:52:36;47448.31;;;-142.53;34.06
4133;BME280;2080;51.038;7.008;2023-06-14T06:55:05;47409.78;;;-142.53;34.17
4133;BME280;2080;51.038;7.008;2023-06-14T06:57:30;47471.41;;;-142.53;33.67
4133;BME280;2080;51.038;7.008;2023-06-14T07:00:00;47402.09;;;-142.53;33.69
4133;BME280;2080;51.038;7.008;2023-06-14T07:02:25;47425.19;;;-142.53;33.89
4133;BME280;2080;51.038;7.008;2023-06-14T07:04:56;47409.78;;;-142.53;33.59
4133;BME280;2080;51.038;7.008;2023-06-14T07:07:21;47413.66;;;-142.53;33.74
4133;BME280;2080;51.038;7.008;2023-06-14T07:09:50;47413.66;;;-142.53;33.60
4133;BME280;2080;51.038;7.008;2023-06-14T07:12:16;47425.19;;;-142.53;33.44
4133;BME280;2080;51.038;7.008;2023-06-14T07:21:01;47386.69;;;-142.53;32.95
4133;BME280;2080;51.038;7.008;2023-06-14T07:23:28;47571.56;;;-142.53;32.75
4133;BME280;2080;51.038;7.008;2023-06-14T07:25:57;47450.25;;;-142.53;32.59
4133;BME280;2080;51.038;7.008;2023-06-14T07:28:26;47430.97;;;-142.53;32.11
4133;BME280;2080;51.038;7.008;2023-06-14T07:30:56;47421.34;;;-142.53;31.57
4133;BME280;2080;51.038;7.008;2023-06-14T07:33:25;47421.34;;;-142.53;31.67
4133;BME280;2080;51.038;7.008;2023-06-14T07:35:52;47413.66;;;-142.53;30.79
4133;BME280;2080;51.038;7.008;2023-06-14T07:38:21;47400.16;;;-142.53;31.15
4133;BME280;2080;51.038;7.008;2023-06-14T07:40:54;47421.34;;;-142.53;30.86
4133;BME280;2080;51.038;7.008;2023-06-14T07:43:19;47402.09;;;-142.53;30.80
4133;BME280;2080;51.038;7.008;2023-06-14T07:46:06;47405.94;;;-142.53;30.87
4133;BME280;2080;51.038;7.008;2023-06-14T07:48:34;47413.66;;;-142.53;30.76
4133;BME280;2080;51.038;7.008;2023-06-14T07:51:01;47402.09;;;-142.53;30.43
4133;BME280;2080;51.038;7.008;2023-06-14T07:53:26;47405.94;;;-142.53;30.06
4133;BME280;2080;51.038;7.008;2023-06-14T07:55:52;47421.34;;;-142.53;30.38
4133;BME280;2080;51.038;7.008;2023-06-14T07:58:18;47440.59;;;-142.53;29.87
4133;BME280;2080;51.038;7.008;2023-06-14T08:00:43;47446.38;;;-142.53;29.37
4133;BME280;2080;51.038;7.008;2023-06-14T08:03:09;47409.78;;;-142.53;29.01
4133;BME280;2080;51.038;7.008;2023-06-14T08:05:34;47386.69;;;-142.53;29.12
4133;BME280;2080;51.038;7.008;2023-06-14T08:08:02;47398.25;;;-142.53;29.10
4133;BME280;2080;51.038;7.008;2023-06-14T08:10:28;47432.91;;;-142.53;29.26
4133;BME280;2080;51.038;7.008;2023-06-14T08:13:00;47390.53;;;-142.53;29.20
4133;BME280;2080;51.038;7.008;2023-06-14T08:15:28;47425.19;;;-142.53;29.18
4133;BME280;2080;51.038;7.008;2023-06-14T08:17:54;47394.38;;;-142.53;28.47
4133;BME280;2080;51.038;7.008;2023-06-14T08:20:25;47421.34;;;-142.53;28.44
4133;BME280;2080;51.038;7.008;2023-06-14T08:22:50;47421.34;;;-142.53;28.43
4133;BME280;2080;51.038;7.008;2023-06-14T08:25:22;47409.78;;;-142.53;28.06
4133;BME280;2080;51.038;7.008;2023-06-14T08:27:48;47425.19;;;-142.53;28.49
4133;BME280;2080;51.038;7.008;2023-06-14T08:30:14;47407.88;;;-142.53;28.57
4133;BME280;2080;51.038;7.008;2023-06-14T08:32:40;47425.19;;;-142.53;28.69
4133;BME280;2080;51.038;7.008;2023-06-14T08:35:08;47444.47;;;-142.53;28.78
4133;BME280;2080;51.038;7.008;2023-06-14T08:37:38;47454.09;;;-142.53;28.24
4133;BME280;2080;51.038;7.008;2023-06-14T08:40:04;47436.75;;;-142.53;28.37
4133;BME280;2080;51.038;7.008;2023-06-14T08:42:34;47413.66;;;-142.53;28.48
4133;BME280;2080;51.038;7.008;2023-06-14T08:45:01;47409.78;;;-142.53;28.26
4133;BME280;2080;51.038;7.008;2023-06-14T08:47:28;47394.38;;;-142.53;28.38
4133;BME280;2080;51.038;7.008;2023-06-14T08:49:55;47402.09;;;-142.53;28.24
4133;BME280;2080;51.038;7.008;2023-06-14T08:52:22;47402.09;;;-142.53;28.63
4133;BME280;2080;51.038;7.008;2023-06-14T08:54:55;47375.13;;;-142.53;28.72
4133;BME280;2080;51.038;7.008;2023-06-14T08:57:27;47429.06;;;-142.53;28.99
4133;BME280;2080;51.038;7.008;2023-06-14T08:59:56;47405.94;;;-142.53;29.00
4133;BME280;2080;51.038;7.008;2023-06-14T09:02:22;47405.94;;;-142.53;28.63
4133;BME280;2080;51.038;7.008;2023-06-14T09:04:48;47432.91;;;-142.53;29.11
4133;BME280;2080;51.038;7.008;2023-06-14T09:07:17;47421.34;;;-142.53;29.18
4133;BME280;2080;51.038;7.008;2023-06-14T09:09:42;47432.91;;;-142.53;29.04
4133;BME280;2080;51.038;7.008;2023-06-14T09:12:11;47402.09;;;-142.53;29.83
4133;BME280;2080;51.038;7.008;2023-06-14T09:14:38;47421.34;;;-142.53;29.43
4133;BME280;2080;51.038;7.008;2023-06-14T09:17:06;47378.97;;;-142.53;29.62
4133;BME280;2080;51.038;7.008;2023-06-14T09:19:33;47438.69;;;-142.53;29.70
4133;BME280;2080;51.038;7.008;2023-06-14T09:21:59;47402.09;;;-142.53;29.52
4133;BME280;2080;51.038;7.008;2023-06-14T09:24:27;47421.34;;;-142.53;29.86
4133;BME280;2080;51.038;7.008;2023-06-14T09:26:53;47409.78;;;-142.53;29.99
4133;BME280;2080;51.038;7.008;2023-06-14T09:29:25;47421.34;;;-142.53;29.90
4133;BME280;2080;51.038;7.008;2023-06-14T09:31:54;47407.88;;;-142.53;29.62
4133;BME280;2080;51.038;7.008;2023-06-14T09:34:20;47421.34;;;-142.53;29.56
4133;BME280;2080;51.038;7.008;2023-06-14T09:36:50;47390.53;;;-142.53;29.57
4133;BME280;2080;51.038;7.008;2023-06-14T09:39:17;47315.44;;;-142.53;29.66
4133;BME280;2080;51.038;7.008;2023-06-14T09:41:43;47413.66;;;-142.53;29.74
4133;BME280;2080;51.038;7.008;2023-06-14T09:44:20;47398.25;;;-142.53;29.57
4133;BME280;2080;51.038;7.008;2023-06-14T09:47:03;47438.69;;;-142.53;29.30
4133;BME280;2080;51.038;7.008;2023-06-14T09:49:28;47413.66;;;-142.53;29.18
4133;BME280;2080;51.038;7.008;2023-06-14T09:51:55;47400.16;;;-142.53;30.25
4133;BME280;2080;51.038;7.008;2023-06-14T09:54:22;47394.38;;;-142.53;29.83
4133;BME280;2080;51.038;7.008;2023-06-14T09:56:54;47415.56;;;-142.53;30.25
4133;BME280;2080;51.038;7.008;2023-06-14T09:59:24;47421.34;;;-142.53;30.03
4133;BME280;2080;51.038;7.008;2023-06-14T10:01:57;47363.56;;;-142.53;30.08
4133;BME280;2080;51.038;7.008;2023-06-14T10:04:25;47429.06;;;-142.53;29.42
4133;BME280;2080;51.038;7.008;2023-06-14T10:06:55;47402.09;;;-142.53;30.08
4133;BME280;2080;51.038;7.008;2023-06-14T10:09:21;47400.16;;;-142.53;30.39
4133;BME280;2080;51.038;7.008;2023-06-14T10:11:50;47382.84;;;-142.53;30.18
4133;BME280;2080;51.038;7.008;2023-06-14T10:14:17;47405.94;;;-142.53;30.98
4133;BME280;2080;51.038;7.008;2023-06-14T10:19:25;47429.06;;;-142.53;31.10
4133;BME280;2080;51.038;7.008;2023-06-14T10:22:17;47388.63;;;-142.53;30.90
4133;BME280;2080;51.038;7.008;2023-06-14T10:24:44;47436.75;;;-142.53;31.06
4133;BME280;2080;51.038;7.008;2023-06-14T10:27:13;47398.25;;;-142.53;31.07
4133;BME280;2080;51.038;7.008;2023-06-14T10:30:07;47405.94;;;-142.53;31.02
4133;BME280;2080;51.038;7.008;2023-06-14T10:32:36;47394.38;;;-142.53;30.90
4133;BME280;2080;51.038;7.008;2023-06-14T10:35:25;47421.34;;;-142.53;31.25
4133;BME280;2080;51.038;7.008;2023-06-14T10:37:51;47407.88;;;-142.53;31.57
4133;BME280;2080;51.038;7.008;2023-06-14T10:40:30;47398.25;;;-142.53;31.42
4133;BME280;2080;51.038;7.008;2023-06-14T10:42:56;47394.38;;;-142.53;31.36
4133;BME280;2080;51.038;7.008;2023-06-14T10:45:21;47365.50;;;-142.53;31.08
4133;BME280;2080;51.038;7.008;2023-06-14T10:47:50;47400.16;;;-142.53;31.49
4133;BME280;2080;51.038;7.008;2023-06-14T10:50:29;47371.28;;;-142.53;30.05
4133;BME280;2080;51.038;7.008;2023-06-14T10:52:55;47378.97;;;-142.53;29.27
4133;BME280;2080;51.038;7.008;2023-06-14T10:55:21;47392.47;;;-142.53;29.34
4133;BME280;2080;51.038;7.008;2023-06-14T10:57:48;47390.53;;;-142.53;28.72
4133;BME280;2080;51.038;7.008;2023-06-14T11:00:24;47378.97;;;-142.53;28.83
4133;BME280;2080;51.038;7.008;2023-06-14T11:08:47;47363.56;;;-142.53;28.13
4133;BME280;2080;51.038;7.008;2023-06-14T11:11:18;47375.13;;;-142.53;29.10
4133;BME280;2080;51.038;7.008;2023-06-14T11:13:46;47359.72;;;-142.53;29.07
4133;BME280;2080;51.038;7.008;2023-06-14T11:18:37;47325.06;;;-142.53;29.17
4133;BME280;2080;51.038;7.008;2023-06-14T11:21:03;47367.44;;;-142.53;29.79
4133;BME280;2080;51.038;7.008;2023-06-14T11:23:31;47355.88;;;-142.53;29.75
4133;BME280;2080;51.038;7.008;2023-06-14T11:25:58;47367.44;;;-142.53;29.80
4133;BME280;2080;51.038;7.008;2023-06-14T11:28:35;47386.69;;;-142.53;29.79
4133;BME280;2080;51.038;7.008;2023-06-14T11:31:02;47398.25;;;-142.53;29.54
4133;BME280;2080;51.038;7.008;2023-06-14T11:33:28;47367.44;;;-142.53;29.43
4133;BME280;2080;51.038;7.008;2023-06-14T11:35:55;47390.53;;;-142.53;29.83
4133;BME280;2080;51.038;7.008;2023-06-14T11:38:20;47340.47;;;-142.53;29.33
4133;BME280;2080;51.038;7.008;2023-06-14T11:40:48;47371.28;;;-142.53;29.85
4133;BME280;2080;51.038;7.008;2023-06-14T11:43:16;47390.53;;;-142.53;29.10
4133;BME280;2080;51.038;7.008;2023-06-14T11:45:48;47355.88;;;-142.53;28.99
4133;BME280;2080;51.038;7.008;2023-06-14T11:48:15;47361.66;;;-142.53;28.91
4133;BME280;2080;51.038;7.008;2023-06-14T11:50:44;47396.31;;;-142.53;28.91
4133;BME280;2080;51.038;7.008;2023-06-14T11:53:09;47382.84;;;-142.53;29.06
4133;BME280;2080;51.038;7.008;2023-06-14T11:55:39;47405.94;;;-142.53;29.12
4133;BME280;2080;51.038;7.008;2023-06-14T11:58:08;47378.97;;;-142.53;28.56
4133;BME280;2080;51.038;7.008;2023-06-14T12:00:37;47398.25;;;-142.53;29.27
4133;BME280;2080;51.038;7.008;2023-06-14T12:03:06;47355.88;;;-142.53;28.88
4133;BME280;2080;51.038;7.008;2023-06-14T12:05:33;47332.75;;;-142.53;28.73
4133;BME280;2080;51.038;7.008;2023-06-14T12:08:03;47352.03;;;-142.53;28.72
4133;BME280;2080;51.038;7.008;2023-06-14T12:10:29;47371.28;;;-142.53;28.24
4133;BME280;2080;51.038;7.008;2023-06-14T12:12:58;47363.56;;;-142.53;27.12
4133;BME280;2080;51.038;7.008;2023-06-14T12:15:27;47373.19;;;-142.53;26.45
4133;BME280;2080;51.038;7.008;2023-06-14T12:17:54;47340.47;;;-142.53;26.79
4133;BME280;2080;51.038;7.008;2023-06-14T12:20:22;47317.34;;;-142.53;26.61
4133;BME280;2080;51.038;7.008;2023-06-14T12:25:42;47375.13;;;-142.53;27.01
4133;BME280;2080;51.038;7.008;2023-06-14T12:28:10;47359.72;;;-142.53;26.83
4133;BME280;2080;51.038;7.008;2023-06-14T12:30:37;47367.44;;;-142.53;27.41
4133;BME280;2080;51.038;7.008;2023-06-14T12:33:05;47375.13;;;-142.53;27.21
4133;BME280;2080;51.038;7.008;2023-06-14T12:35:32;47419.44;;;-142.53;27.47
4133;BME280;2080;51.038;7.008;2023-06-14T12:37:58;47425.19;;;-142.53;27.69
4133;BME280;2080;51.038;7.008;2023-06-14T12:40:26;47352.03;;;-142.53;28.05
4133;BME280;2080;51.038;7.008;2023-06-14T12:42:54;47405.94;;;-142.53;28.20
4133;BME280;2080;51.038;7.008;2023-06-14T12:45:19;47365.50;;;-142.53;27.88
4133;BME280;2080;51.038;7.008;2023-06-14T12:47:45;47367.44;;;-142.53;27.84
4133;BME280;2080;51.038;7.008;2023-06-14T12:50:11;47371.28;;;-142.53;28.20
4133;BME280;2080;51.038;7.008;2023-06-14T12:52:36;47375.13;;;-142.53;28.08
4133;BME280;2080;51.038;7.008;2023-06-14T12:55:06;47336.63;;;-142.53;27.95
4133;BME280;2080;51.038;7.008;2023-06-14T12:57:32;47328.91;;;-142.53;27.70
4133;BME280;2080;51.038;7.008;2023-06-14T12:59:59;47405.94;;;-142.53;27.49
4133;BME280;2080;51.038;7.008;2023-06-14T13:02:25;47332.75;;;-142.53;27.95
4133;BME280;2080;51.038;7.008;2023-06-14T13:04:51;47388.63;;;-142.53;28.11
4133;BME280;2080;51.038;7.008;2023-06-14T13:07:16;47359.72;;;-142.53;28.01
4133;BME280;2080;51.038;7.008;2023-06-14T13:09:42;47367.44;;;-142.53;28.63
4133;BME280;2080;51.038;7.008;2023-06-14T13:12:10;47352.03;;;-142.53;28.31
4133;BME280;2080;51.038;7.008;2023-06-14T13:14:41;47352.03;;;-142.53;28.21
4133;BME280;2080;51.038;7.008;2023-06-14T13:17:08;47288.47;;;-142.53;28.47
4133;BME280;2080;51.038;7.008;2023-06-14T13:19:35;47155.59;;;-142.53;28.12
4133;BME280;2080;51.038;7.008;2023-06-14T13:22:00;47348.16;;;-142.53;27.97
4133;BME280;2080;51.038;7.008;2023-06-14T13:24:26;47317.34;;;-142.53;27.77
4133;BME280;2080;51.038;7.008;2023-06-14T13:26:51;47309.66;;;-142.53;27.56
4133;BME280;2080;51.038;7.008;2023-06-14T13:29:19;47363.56;;;-142.53;27.66